Tiempo atmosférico en la estación meteorológica de Escorca, Lluc, Illes Balears (490 m.)



Fecha
DESCASC
Temp. máxima en grados centígrados (hora)
DESCASC
Temp. mínima en grados centígrados (hora)
DESCASC
Temp. media en grados centígrados
DESCASC
Racha de viento máxima en m/sg (hora)
DESCASC
Velocidad máxima media en intervalos de 10 minutos(hora)
DESCASC
Precipitaciones diarias en mm
DESCASC
Precipitaciones de 00:00 a 06:00 en mm
DESCASC
Precipitaciones de 06:00 a 12:00 en mm
DESCASC
Precipitaciones de 12:00 a 18:00 en mm
DESCASC
Precipitaciones de 18:00 a 24:00 en mm
DESCASC
25-02-2021 16.5 (12:50) 2.8 (07:50) 9.6 4.44 (17:50) 1.67 (17:50) 0 0 0 0 0
24-02-2021 15.3 (14:20) 8.6 (06:40) 12 7.5 (09:20) 3.06 (10:30) 0 0 0 0 0
23-02-2021 15 (14:30) 4.5 (03:00) 9.8 6.94 (12:40) 1.94 (12:50) 0 0 0 0 0
22-02-2021 16.2 (01:50) 6.2 (23:59) 11.2 8.89 (11:30) 3.06 (12:20) 2 0 0 2 0
21-02-2021 15.7 (22:30) 9.9 (00:00) 12.8 11.94 (14:40) 4.17 (10:50) 0 0 0 0 0
20-02-2021 18.1 (13:20) 1.6 (00:00) 9.9 10.28 (19:30) 4.17 (22:40) 0 0 0 0 0
19-02-2021 17.4 (13:30) 0.5 (00:00) 8.9 5.83 (16:40) 1.67 (16:30) 0 0 0 0 0
18-02-2021 18.7 (12:10) 2.2 (00:00) 10.5 8.89 (10:00) 3.61 (10:40) 0 0 0 0 0
17-02-2021 16.1 (12:50) 0.5 (00:00) 8.3 4.44 (14:50) 1.67 (16:00) 0 0 0 0 0
16-02-2021 14.1 (13:40) 2.3 (00:00) 8.2 4.17 (12:10) 1.39 (10:10) 0 0 0 0 0
15-02-2021 9 (14:00) 3.9 (00:00) 6.5 6.94 (18:50) 2.5 (18:40) 0 0 0 0 0
14-02-2021 9 (03:20) 5 (00:00) 7 6.11 (17:10) 2.22 (16:50) 0.1 0.1 0 0 0
13-02-2021 12.3 (13:10) 6.4 (00:00) 9.4 5 (04:40) 1.67 (15:30) 0 0 0 0 0
12-02-2021 17.7 (10:50) 4.7 (00:00) 11.2 11.11 (21:30) 2.78 (09:30) 10.2 0 0 0.8 9.4
11-02-2021 17.7 (12:50) 2.1 (00:00) 9.9 5 (00:10) 1.11 (12:00) 0 0 0 0 0
10-02-2021 14.5 (00:00) 8.3 (00:00) 11.4 19.17 (09:30) 5 (10:20) 3.8 0 3.8 0 0
09-02-2021 14.7 (23:30) 8.8 (00:00) 11.8 14.72 (23:20) 4.72 (19:20) 0.5 0 0 0 0.5
08-02-2021 14.2 (10:50) 3 (00:00) 8.6 15.28 (12:50) 5 (09:10) 1 0 0 0.8 0.2
07-02-2021 10.5 (14:40) 3.1 (00:00) 6.8 10 (15:00) 1.94 (10:30) 0 0 0 0 0
06-02-2021 20.6 (02:30) 9.2 (00:00) 14.9 11.67 (02:20) 2.5 (00:10) 0 0 0 0 0
05-02-2021 21.8 (11:50) 8.5 (00:00) 15.1 11.39 (23:30) 3.33 (05:30) 0 0 0 0 0
04-02-2021 20.8 (14:20) 5.5 (00:00) 13.1 6.67 (15:30) 2.5 (14:40) 0 0 0 0 0
03-02-2021 23.2 (14:10) 5.1 (00:00) 14.2 7.22 (12:50) 1.11 (13:30) 0 0 0 0 0
02-02-2021 19.1 (13:00) 6.6 (00:00) 12.9 9.44 (00:40) 1.94 (00:10) 0 0 0 0 0
01-02-2021 15.4 (03:10) 12.8 (00:00) 14.1 16.11 (16:30) 2.78 (21:40) 0 0 0 0 0
31-01-2021 14.3 (22:20) 9.5 (00:00) 11.9 15 (11:20) 3.33 (08:20) 0 0 0 0 0
30-01-2021 18.7 (10:20) 5.3 (00:00) 12 18.33 (11:00) 5.56 (11:00) 0 0 0 0 0

Gráficas

Temp. máximas Temp. mínimas Temp. medias Precipitaciones Rachas de viento máximas Velocidades máximas media en intervalos de 10 minutos

Datos horarios

Fecha y hora oficial Temperatura (ºC) Velocidad del viento (km/h) Dirección del viento Racha (km/h) Dirección de racha Precipitación (mm) Presión (hPa) Tendencia (hPa) Humedad (%)
2021-02-28 23:00:00 10 7 Sudeste 25 Sur 0 -- -- 90
2021-02-28 22:00:00 9.9 10 Sur 31 Sur 0 -- -- 80
2021-02-28 21:00:00 9.5 7 Sudeste 25 Sudeste 0 -- -- 84
2021-02-28 20:00:00 9.9 9 Sudeste 26 Sur 0 -- -- 86
2021-02-28 19:00:00 10 6 Sudeste 24 Sudeste 0 -- -- 82
2021-02-28 18:00:00 10.6 9 Este 26 Sudeste 0 -- -- 76
2021-02-28 17:00:00 11.1 6 Sudeste 21 Sudeste 0 -- -- 77
2021-02-28 16:00:00 11.5 7 Este 23 Este 0 -- -- 76
2021-02-28 15:00:00 12 6 Sudeste 23 Este 0 -- -- 69
2021-02-28 14:00:00 12.8 10 Este 27 Este 0 -- -- 61
2021-02-28 13:00:00 11.9 8 Este 24 Este 0 -- -- 70
2021-02-28 12:00:00 12.4 6 Este 18 Este 0 -- -- 71
2021-02-28 11:00:00 13.8 5 Sudeste 16 Este 0 -- -- 63
2021-02-28 10:00:00 12.1 0 Calma 14 Oeste 0 -- -- 70
2021-02-28 09:00:00 10.3 3 Sudoeste 11 Sudoeste 0 -- -- 86
2021-02-28 08:00:00 8.2 0 Calma 16 Oeste 0 -- -- 93
2021-02-28 07:00:00 7.5 3 Sudoeste 15 Sudoeste 0 -- -- 94
2021-02-28 06:00:00 7.6 2 Sudoeste 10 Sudoeste 0 -- -- 97
2021-02-28 05:00:00 7.3 0 Calma 8 Oeste 0 -- -- 99
2021-02-28 04:00:00 6.9 0 Calma 7 Noroeste 0 -- -- 99
2021-02-28 03:00:00 4.8 0 Calma 13 Sudoeste 0 -- -- 99
2021-02-28 02:00:00 4.5 0 Calma 5 Sudeste 0 -- -- 99
2021-02-28 01:00:00 4.4 0 Calma 6 Este 0 -- -- 97
2021-02-28 00:00:00 4.9 0 Calma 6 Sudoeste 0 -- -- 96
2021-02-27 23:00:00 6 0 Calma 6 Sudeste 0 -- -- 95
2021-02-27 22:00:00 7 3 Sur 11 Sur 0 -- -- 94
2021-02-27 21:00:00 7.4 2 Sur 12 Sudeste 0 -- -- 91
2021-02-27 20:00:00 8.1 3 Sudeste 16 Sudeste 0 -- -- 87
2021-02-27 19:00:00 9.3 5 Este 15 Sudeste 0 -- -- 84
2021-02-27 18:00:00 10.3 5 Sudeste 15 Sudeste 0 -- -- 77
2021-02-27 17:00:00 11.4 6 Sudeste 21 Sur 0 -- -- 71
2021-02-27 16:00:00 12.7 8 Sur 22 Sudoeste 0 -- -- 70
2021-02-27 15:00:00 12.4 5 Sudeste 21 Sudeste 0 -- -- 73
2021-02-27 14:00:00 13.3 5 Sudeste 17 Sudoeste 0 -- -- 71
2021-02-27 13:00:00 15 5 Sur 21 Este 0 -- -- 61
2021-02-27 12:00:00 15.7 0 Calma 15 Norte 0 -- -- 56
2021-02-27 11:00:00 13.9 0 Calma 13 Nordeste 0 -- -- 66
2021-02-27 10:00:00 12.3 0 Calma 9 Nordeste 0 -- -- 74
2021-02-27 09:00:00 7.2 0 Calma 9 Oeste 0 -- -- 99
2021-02-27 08:00:00 2.4 0 Calma 5 Sudeste 0 -- -- 99
2021-02-27 07:00:00 1.8 0 Calma -- -- 0 -- -- 99
2021-02-27 06:00:00 1.7 0 Calma -- -- 0 -- -- 99
2021-02-27 05:00:00 1.8 0 Calma -- -- 0 -- -- 99
2021-02-27 04:00:00 1.6 0 Calma -- -- 0 -- -- 99
2021-02-27 03:00:00 1.6 0 Calma -- -- 0 -- -- 98
2021-02-27 02:00:00 2.1 0 Calma -- -- 0 -- -- 98
2021-02-27 01:00:00 2.5 0 Calma -- -- 0 -- -- 97
2021-02-27 00:00:00 3.1 0 Calma -- -- 0 -- -- 97
2021-02-26 23:00:00 3.7 0 Calma -- -- 0 -- -- 96
2021-02-26 22:00:00 4.6 0 Calma -- -- 0 -- -- 94
2021-02-26 21:00:00 5.5 0 Calma -- -- 0 -- -- 94
2021-02-26 20:00:00 7 0 Calma -- -- 0 -- -- 91
2021-02-26 19:00:00 8.9 0 Calma 4 Noroeste 0 -- -- 89
2021-02-26 18:00:00 10.8 0 Calma 8 Sudoeste 0 -- -- 88
2021-02-26 17:00:00 12.7 2 Sudoeste 11 Sudoeste 0 -- -- 81
2021-02-26 16:00:00 14 3 Oeste 15 Sur 0 -- -- 76
2021-02-26 15:00:00 14.3 4 Sudeste 16 Nordeste 0 -- -- 71
2021-02-26 14:00:00 14.8 4 Este 19 Este 0 -- -- 72
2021-02-26 13:00:00 15.2 4 Este 17 Sudeste 0 -- -- 67
2021-02-26 12:00:00 15.3 4 Sur 14 Sudeste 0 -- -- 68
2021-02-26 11:00:00 13 4 Noroeste 9 Noroeste 0 -- -- 71
2021-02-26 10:00:00 10.6 0 Calma 6 Este 0 -- -- 86
2021-02-26 09:00:00 6 0 Calma -- -- 0 -- -- 99
2021-02-26 08:00:00 3.5 0 Calma 11 Este 0 -- -- 99
2021-02-26 07:00:00 2.2 0 Calma 8 Este 0 -- -- 99
2021-02-26 06:00:00 1.5 0 Calma 4 Sudeste 0 -- -- 99
2021-02-26 05:00:00 1.6 0 Calma -- -- 0 -- -- 99
2021-02-26 04:00:00 2.4 0 Calma -- -- 0 -- -- 99
2021-02-26 03:00:00 2.7 0 Calma 3 Sudeste 0 -- -- 99
2021-02-26 02:00:00 2.9 0 Calma -- -- 0 -- -- 98
2021-02-26 01:00:00 3.2 0 Calma -- -- 0 -- -- 97
2021-02-26 00:00:00 3.8 0 Calma -- -- 0 -- -- 96
2021-02-25 23:00:00 4.4 0 Calma -- -- 0 -- -- 95
2021-02-25 22:00:00 5.3 0 Calma -- -- 0 -- -- 93
2021-02-25 21:00:00 6.7 0 Calma -- -- 0 -- -- 91
2021-02-25 20:00:00 8.4 0 Calma 6 Sudeste 0 -- -- 89
2021-02-25 19:00:00 10.2 2 Sudeste 13 Sudeste 0 -- -- 88
2021-02-25 18:00:00 11.3 3 Sudeste 16 Sudeste 0 -- -- 85
2021-02-25 17:00:00 12.9 5 Sudeste 15 Sudeste 0 -- -- 78
2021-02-25 16:00:00 14.3 4 Sudeste 14 Sudoeste 0 -- -- 73
2021-02-25 15:00:00 15.1 4 Sur 15 Sudeste 0 -- -- 70
2021-02-25 14:00:00 15.5 2 Sudoeste 12 Sudoeste 0 -- -- 64
2021-02-25 13:00:00 16.1 0 Calma 11 Oeste 0 -- -- 57
2021-02-25 12:00:00 16 2 Sudoeste 13 Oeste 0 -- -- 61
2021-02-25 11:00:00 14.8 3 Oeste 7 Oeste 0 -- -- 62
2021-02-25 10:00:00 12 0 Calma -- -- 0 -- -- 77
2021-02-25 09:00:00 6.5 0 Calma -- -- 0 -- -- 99
2021-02-25 08:00:00 2.9 0 Calma -- -- 0 -- -- 99
2021-02-25 07:00:00 3.2 0 Calma -- -- 0 -- -- 98
2021-02-25 06:00:00 3.6 0 Calma -- -- 0 -- -- 97
2021-02-25 05:00:00 4.4 0 Calma -- -- 0 -- -- 97
2021-02-25 04:00:00 5.1 0 Calma 4 Sudeste 0 -- -- 97
2021-02-25 03:00:00 6.1 0 Calma 7 Nordeste 0 -- -- 96
2021-02-25 02:00:00 7 0 Calma 5 Este 0 -- -- 95
2021-02-25 01:00:00 8.4 0 Calma 9 Sudeste 0 -- -- 94
2021-02-25 00:00:00 8.8 0 Calma 14 Sur 0 -- -- 93
2021-02-24 23:00:00 9.1 2 Sudeste 10 Sudeste 0 -- -- 94
2021-02-24 22:00:00 9.4 0 Calma 7 Sudeste 0 -- -- 91
2021-02-24 21:00:00 10.2 4 Sudeste 16 Este 0 -- -- 90
2021-02-24 20:00:00 10.6 4 Sudeste 19 Sudeste 0 -- -- 87
2021-02-24 19:00:00 11.1 4 Sudeste 17 Sudeste 0 -- -- 80
2021-02-24 18:00:00 11.6 4 Sudeste 13 Sudeste 0 -- -- 75
2021-02-24 17:00:00 12.6 0 Calma 19 Sur 0 -- -- 65
2021-02-24 16:00:00 13.4 4 Sudeste 18 Sudeste 0 -- -- 62
2021-02-24 15:00:00 14 6 Sudeste 24 Sudoeste 0 -- -- 62
2021-02-24 14:00:00 14.4 6 Sudeste 21 Sur 0 -- -- 54
2021-02-24 13:00:00 13.3 5 Sudeste 24 Sudoeste 0 -- -- 73
2021-02-24 12:00:00 13.7 9 Sudeste 27 Sudeste 0 -- -- 70
2021-02-24 11:00:00 14.4 8 Sudeste 25 Sudeste 0 -- -- 65
2021-02-24 10:00:00 13.4 9 Sudeste 27 Sudeste 0 -- -- 55
2021-02-24 09:00:00 11.9 8 Sudeste 26 Sur 0 -- -- 61
2021-02-24 08:00:00 9.1 5 Sudeste 16 Sudeste 0 -- -- 81
2021-02-24 07:00:00 8.7 6 Sudeste 15 Sudeste 0 -- -- 82
2021-02-24 06:00:00 8.9 4 Sudeste 15 Sudeste 0 -- -- 82
2021-02-24 05:00:00 8.9 5 Sudeste 16 Sudeste 0 -- -- 79
2021-02-24 04:00:00 9 4 Este 15 Sudeste 0 -- -- 78
2021-02-24 03:00:00 9.7 4 Sudeste 17 Sudeste 0 -- -- 86
2021-02-24 02:00:00 10.4 8 Sudeste 25 Sudeste 0 -- -- 94
2021-02-24 01:00:00 10.6 8 Sudeste 23 Sudeste 0 -- -- 95
2021-02-24 00:00:00 10.8 6 Sudeste 20 Sudeste 0 -- -- 94
2021-02-23 23:00:00 11.4 3 Sudeste 21 Sur 0 -- -- 93
2021-02-23 22:00:00 11.5 4 Sudeste 15 Sudeste 0 -- -- 94
2021-02-23 21:00:00 11.7 4 Sur 14 Sudoeste 0 -- -- 94
2021-02-23 20:00:00 11.8 4 Sur 15 Sur 0 -- -- 94
2021-02-23 19:00:00 11.9 4 Sur 16 Sur 0 -- -- 93
2021-02-23 18:00:00 12.8 0 Calma 9 Nordeste 0 -- -- 92
2021-02-23 17:00:00 13.3 0 Calma 14 Sur 0 -- -- 88
2021-02-23 16:00:00 13.8 6 Sudeste 15 Sudeste 0 -- -- 89
2021-02-23 15:00:00 14.7 0 Calma 15 Este 0 -- -- 82
2021-02-23 14:00:00 14.7 3 Sudeste 18 Sudeste 0 -- -- 83
2021-02-23 13:00:00 13.4 6 Sudeste 25 Sur 0 -- -- 88
2021-02-23 12:00:00 13.1 5 Este 20 Sudeste 0 -- -- 90
2021-02-23 11:00:00 12.6 5 Este 17 Sudeste 0 -- -- 93
2021-02-23 10:00:00 11.5 5 Sur 15 Sudeste 0 -- -- 98
2021-02-23 09:00:00 9.3 0 Calma 9 Sur 0 -- -- 99
2021-02-23 08:00:00 7.7 0 Calma -- -- 0 -- -- 99
2021-02-23 07:00:00 6.6 0 Calma -- -- 0 -- -- 99
2021-02-23 06:00:00 6.5 0 Calma -- -- 0 -- -- 99
2021-02-23 05:00:00 5.5 0 Calma -- -- 0 -- -- 99
2021-02-23 04:00:00 5.3 0 Calma -- -- 0 -- -- 99
2021-02-23 03:00:00 4.7 0 Calma -- -- 0 -- -- 99
2021-02-23 02:00:00 4.8 0 Calma -- -- 0 -- -- 98
2021-02-23 01:00:00 5.6 0 Calma 0 Calma 0 -- -- 98
2021-02-23 00:00:00 6.2 0 Calma -- -- 0 -- -- 97
2021-02-22 23:00:00 7.4 0 Calma 3 Sudeste 0 -- -- 96
2021-02-22 22:00:00 8.4 0 Calma 4 Sudeste 0 -- -- 95
2021-02-22 21:00:00 9.2 0 Calma 8 Sudeste 0 -- -- 92
2021-02-22 20:00:00 10.5 3 Sudeste 16 Sudoeste 0 -- -- 92
2021-02-22 19:00:00 11.1 3 Sudeste 17 Sudeste 0 -- -- 93
2021-02-22 18:00:00 11.1 3 Sudeste 16 Nordeste 0 -- -- 92
2021-02-22 17:00:00 11.3 3 Sudeste 21 Sur 0.1 -- -- 94
2021-02-22 16:00:00 11.4 5 Sudeste 30 Sudeste 0.1 -- -- 92
2021-02-22 15:00:00 11.3 5 Sur 24 Sur 1.6 -- -- 91
2021-02-22 14:00:00 11.5 4 Sudeste 31 Sudoeste 0.2 -- -- 85
2021-02-22 13:00:00 12.2 7 Sudeste 32 Sudoeste 0 -- -- 80
2021-02-22 12:00:00 11.5 6 Sur 32 Sudoeste 0 -- -- 85
2021-02-22 11:00:00 11.9 6 Sudeste 24 Sur 0 -- -- 76
2021-02-22 10:00:00 11.3 4 Este 22 Sudeste 0 -- -- 82
2021-02-22 09:00:00 11.5 5 Este 24 Sur 0 -- -- 77
2021-02-22 08:00:00 12.5 2 Nordeste 16 Este 0 -- -- 71
2021-02-22 07:00:00 12.7 3 Nordeste 13 Nordeste 0 -- -- 66
2021-02-22 06:00:00 13 4 Nordeste 21 Este 0 -- -- 58
2021-02-22 05:00:00 13.5 4 Este 22 Sudeste 0 -- -- 59
2021-02-22 04:00:00 13.9 6 Este 27 Sur 0 -- -- 61
2021-02-22 03:00:00 14.8 4 Este 26 Sudeste 0 -- -- 56
2021-02-22 02:00:00 16 3 Este 23 Sudeste 0 -- -- 46
2021-02-22 01:00:00 15.4 0 Calma 20 Este 0 -- -- 46
2021-02-22 00:00:00 15.5 9 Sudeste 30 Sudoeste 0 -- -- 60
2021-02-21 23:00:00 15.3 4 Este 29 Este 0 -- -- 65
2021-02-21 22:00:00 15 5 Sudeste 21 Sur 0 -- -- 66
2021-02-21 21:00:00 13.9 6 Este 21 Este 0 -- -- 77
2021-02-21 20:00:00 14.2 7 Sudeste 30 Sudeste 0 -- -- 72
2021-02-21 19:00:00 14.1 7 Sudeste 24 Sudeste 0 -- -- 70
2021-02-21 18:00:00 14.1 8 Sudeste 26 Sudeste 0 -- -- 72
2021-02-21 17:00:00 14.1 6 Sudeste 26 Sudeste 0 -- -- 78
2021-02-21 16:00:00 14.7 9 Este 28 Este 0 -- -- 79
2021-02-21 15:00:00 14.4 10 Sudeste 43 Sur 0 -- -- 83
2021-02-21 14:00:00 14.5 9 Sudeste 34 Sudeste 0 -- -- 83
2021-02-21 13:00:00 14.2 13 Este 35 Sudeste 0 -- -- 85
2021-02-21 12:00:00 13.8 12 Sudeste 36 Sudeste 0 -- -- 85
2021-02-21 11:00:00 12.4 13 Sudeste 40 Sudeste 0 -- -- 89
2021-02-21 10:00:00 11.9 11 Sudeste 35 Sur 0 -- -- 92
2021-02-21 09:00:00 11.5 8 Sudeste 26 Sudeste 0 -- -- 90
2021-02-21 08:00:00 11.6 6 Sudeste 24 Sudeste 0 -- -- 80
2021-02-21 07:00:00 12.3 6 Sudeste 26 Sudeste 0 -- -- 56
2021-02-21 06:00:00 12.6 9 Sudeste 31 Sur 0 -- -- 47
2021-02-21 05:00:00 12.3 8 Sudeste 31 Sudeste 0 -- -- 44
2021-02-21 04:00:00 12.5 10 Sudeste 28 Sur 0 -- -- 42
2021-02-21 03:00:00 11.1 8 Sudeste 20 Sudeste 0 -- -- 54
2021-02-21 02:00:00 10 4 Sudeste 14 Sur 0 -- -- 56
2021-02-21 01:00:00 10.8 3 Sudeste 18 Sudeste 0 -- -- 49
2021-02-21 00:00:00 12.2 8 Sudeste 30 Sur 0 -- -- 41
2021-02-20 23:00:00 13.4 12 Sudeste 35 Sudeste 0 -- -- 29
2021-02-20 22:00:00 13.1 9 Sur 32 Sur 0 -- -- 27
2021-02-20 21:00:00 13 11 Sur 29 Sur 0 -- -- 26
2021-02-20 20:00:00 13.1 12 Sur 37 Sur 0 -- -- 31
2021-02-20 19:00:00 13.3 10 Sur 32 Sur 0 -- -- 36
2021-02-20 18:00:00 13.3 10 Sudeste 25 Sudeste 0 -- -- 55
2021-02-20 17:00:00 14.6 8 Sur 28 Sudeste 0 -- -- 63
2021-02-20 16:00:00 16.2 9 Sudeste 28 Sudeste 0 -- -- 61
2021-02-20 15:00:00 17.6 8 Sudeste 28 Sur 0 -- -- 46
2021-02-20 14:00:00 17.9 8 Sur 27 Sudoeste 0 -- -- 40
2021-02-20 13:00:00 18 9 Sur 26 Sudoeste 0 -- -- 49
2021-02-20 12:00:00 17.9 7 Sur 24 Sudeste 0 -- -- 53
2021-02-20 11:00:00 17 5 Este 20 Sudeste 0 -- -- 52
2021-02-20 10:00:00 15.8 7 Sur 24 Sur 0 -- -- 47
2021-02-20 09:00:00 7.4 3 Este 15 Sur 0 -- -- 87
2021-02-20 08:00:00 2 0 Calma 7 Sudoeste 0 -- -- 98
2021-02-20 07:00:00 2.4 0 Calma 12 Oeste 0 -- -- 99
2021-02-20 06:00:00 1.7 0 Calma -- -- 0 -- -- 98
2021-02-20 05:00:00 2.2 0 Calma 6 Sur 0 -- -- 97
2021-02-20 04:00:00 2.5 0 Calma 5 Sur 0 -- -- 97
2021-02-20 03:00:00 3.1 0 Calma -- -- 0 -- -- 96
2021-02-20 02:00:00 3.5 0 Calma 5 Sur 0 -- -- 95
2021-02-20 01:00:00 4 0 Calma -- -- 0 -- -- 95
2021-02-20 00:00:00 4.8 0 Calma 4 Sudoeste 0 -- -- 95
2021-02-19 23:00:00 4.9 0 Calma 4 Sudeste 0 -- -- 96
2021-02-19 22:00:00 5.8 0 Calma -- -- 0 -- -- 92
2021-02-19 21:00:00 7.7 0 Calma 7 Sudeste 0 -- -- 89
2021-02-19 20:00:00 10 0 Calma 10 Sudeste 0 -- -- 88
2021-02-19 19:00:00 12.1 4 Este 15 Sudeste 0 -- -- 92
2021-02-19 18:00:00 12.8 4 Este 18 Sudeste 0 -- -- 86
2021-02-19 17:00:00 14.5 5 Este 21 Sudeste 0 -- -- 79
2021-02-19 16:00:00 15.9 4 Sudeste 19 Sur 0 -- -- 74
2021-02-19 15:00:00 16.4 5 Sudeste 16 Este 0 -- -- 73
2021-02-19 14:00:00 17.2 4 Este 16 Sudeste 0 -- -- 68
2021-02-19 13:00:00 16.3 4 Oeste 10 Oeste 0 -- -- 68
2021-02-19 12:00:00 16.4 4 Noroeste 10 Noroeste 0 -- -- 55
2021-02-19 11:00:00 14.8 0 Calma 7 Noroeste 0 -- -- 54
2021-02-19 10:00:00 10.8 0 Calma 6 Oeste 0 -- -- 78
2021-02-19 09:00:00 3.8 0 Calma -- -- 0 -- -- 97
2021-02-19 08:00:00 1.1 0 Calma 3 Sudeste 0 -- -- 97
2021-02-19 07:00:00 0.7 0 Calma 2 Norte 0 -- -- 96
2021-02-19 06:00:00 1.1 0 Calma -- -- 0 -- -- 96
2021-02-19 05:00:00 1.3 0 Calma 0 Calma 0 -- -- 94
2021-02-19 04:00:00 1.8 0 Calma 6 Noroeste 0 -- -- 94
2021-02-19 03:00:00 2.1 0 Calma -- -- 0 -- -- 93
2021-02-19 02:00:00 2.7 0 Calma -- -- 0 -- -- 89
2021-02-19 01:00:00 3.4 0 Calma -- -- 0 -- -- 85
2021-02-19 00:00:00 4.6 0 Calma 6 Sudeste 0 -- -- 80
2021-02-18 23:00:00 5.6 0 Calma -- -- 0 -- -- 76
2021-02-18 22:00:00 7.3 0 Calma 3 Sur 0 -- -- 68
2021-02-18 21:00:00 9 0 Calma 11 Sur 0 -- -- 66
2021-02-18 20:00:00 10.3 0 Calma 12 Sudeste 0 -- -- 81
2021-02-18 19:00:00 12.7 6 Sur 21 Sur 0 -- -- 81
2021-02-18 18:00:00 14 6 Sudeste 18 Sur 0 -- -- 74
2021-02-18 17:00:00 15.5 5 Sudeste 21 Sudeste 0 -- -- 61
2021-02-18 16:00:00 17.1 6 Sudeste 21 Sudoeste 0 -- -- 58
2021-02-18 15:00:00 17.3 6 Sudeste 22 Sur 0 -- -- 57
2021-02-18 14:00:00 17.8 8 Sudeste 24 Sudeste 0 -- -- 50
2021-02-18 13:00:00 18.5 6 Sur 31 Sudoeste 0 -- -- 51
2021-02-18 12:00:00 18.4 10 Sur 29 Sudeste 0 -- -- 43
2021-02-18 11:00:00 18.2 10 Sur 32 Sur 0 -- -- 28
2021-02-18 10:00:00 16.5 13 Sur 32 Sur 0 -- -- 31
2021-02-18 09:00:00 11.8 9 Sur 30 Sur 0 -- -- 51
2021-02-18 08:00:00 3.5 0 Calma 9 Sudoeste 0 -- -- 91
2021-02-18 07:00:00 2.6 0 Calma 9 Sudoeste 0 -- -- 91
2021-02-18 06:00:00 3.5 0 Calma 9 Oeste 0 -- -- 89
2021-02-18 05:00:00 3.6 0 Calma 6 Sudeste 0 -- -- 91
2021-02-18 04:00:00 4.3 0 Calma 11 Sudoeste 0 -- -- 88
2021-02-18 03:00:00 5.6 0 Calma 6 Sudoeste 0 -- -- 85
2021-02-18 02:00:00 5.8 0 Calma 7 Norte 0 -- -- 85
2021-02-18 01:00:00 4.1 0 Calma 8 Sur 0 -- -- 97
2021-02-18 00:00:00 4.1 0 Calma 4 Sudoeste 0 -- -- 97
2021-02-17 23:00:00 4.5 0 Calma -- -- 0 -- -- 96
2021-02-17 22:00:00 5.1 0 Calma -- -- 0 -- -- 94
2021-02-17 21:00:00 6.4 0 Calma -- -- 0 -- -- 92
2021-02-17 20:00:00 8.5 0 Calma 6 Sudeste 0 -- -- 90
2021-02-17 19:00:00 10.5 0 Calma 12 Nordeste 0 -- -- 88
2021-02-17 18:00:00 11.9 4 Este 14 Sudeste 0 -- -- 89
2021-02-17 17:00:00 13.8 3 Este 16 Sudeste 0 -- -- 80
2021-02-17 16:00:00 15.2 6 Sudeste 15 Sudeste 0 -- -- 72
2021-02-17 15:00:00 15.7 3 Sudeste 16 Sudoeste 0 -- -- 69
2021-02-17 14:00:00 15.5 5 Noroeste 14 Oeste 0 -- -- 70
2021-02-17 13:00:00 15.5 4 Oeste 12 Oeste 0 -- -- 71
2021-02-17 12:00:00 15.4 4 Noroeste 11 Oeste 0 -- -- 68
2021-02-17 11:00:00 13.7 3 Noroeste 10 Oeste 0 -- -- 68
2021-02-17 10:00:00 11.1 0 Calma 8 Nordeste 0 -- -- 87
2021-02-17 09:00:00 7.1 0 Calma 9 Este 0 -- -- 99
2021-02-17 08:00:00 1.8 0 Calma 6 Nordeste 0 -- -- 99
2021-02-17 07:00:00 1 0 Calma -- -- 0 -- -- 99
2021-02-17 06:00:00 1.2 0 Calma 8 Sudoeste 0 -- -- 99
2021-02-17 05:00:00 0.7 0 Calma -- -- 0 -- -- 99
2021-02-17 04:00:00 0.6 0 Calma -- -- 0 -- -- 98
2021-02-17 03:00:00 1 0 Calma -- -- 0 -- -- 97
2021-02-17 02:00:00 1.4 0 Calma -- -- 0 -- -- 97
2021-02-17 01:00:00 1.8 0 Calma -- -- 0 -- -- 97
2021-02-17 00:00:00 2.3 0 Calma -- -- 0 -- -- 97
2021-02-16 23:00:00 3 0 Calma -- -- 0 -- -- 96
2021-02-16 22:00:00 3.6 0 Calma -- -- 0 -- -- 96
2021-02-16 21:00:00 4.3 0 Calma 2 Este 0 -- -- 95
2021-02-16 20:00:00 5.6 0 Calma -- -- 0 -- -- 91
2021-02-16 19:00:00 7.9 0 Calma 5 Este 0 -- -- 86
2021-02-16 18:00:00 9.6 0 Calma 7 Este 0 -- -- 84
2021-02-16 17:00:00 11.1 0 Calma 12 Sudeste 0 -- -- 77
2021-02-16 16:00:00 12.5 4 Sudeste 14 Sur 0 -- -- 69
2021-02-16 15:00:00 13.2 4 Sudoeste 14 Sudoeste 0 -- -- 64
2021-02-16 14:00:00 13.4 3 Sur 12 Sudoeste 0 -- -- 62
2021-02-16 13:00:00 13.3 2 Sur 15 Sudeste 0 -- -- 60
2021-02-16 12:00:00 13.3 4 Sudeste 14 Sudeste 0 -- -- 62
2021-02-16 11:00:00 12.1 4 Este 14 Sudeste 0 -- -- 63
2021-02-16 10:00:00 10 4 Sudeste 13 Sudeste 0 -- -- 72
2021-02-16 09:00:00 6.4 0 Calma 9 Este 0 -- -- 87
2021-02-16 08:00:00 3.7 0 Calma 12 Nordeste 0 -- -- 94
2021-02-16 07:00:00 2.5 0 Calma -- -- 0 -- -- 95
2021-02-16 06:00:00 3.8 0 Calma 8 Este 0 -- -- 92
2021-02-16 05:00:00 3.3 0 Calma 6 Este 0 -- -- 96
2021-02-16 04:00:00 3.5 0 Calma 5 Este 0 -- -- 93
2021-02-16 03:00:00 5.2 0 Calma 8 Sudeste 0 -- -- 89
2021-02-16 02:00:00 6.4 0 Calma 9 Sur 0 -- -- 79
2021-02-16 01:00:00 6.5 0 Calma 14 Sudeste 0 -- -- 83
2021-02-16 00:00:00 6.3 4 Sudeste 15 Sudeste 0 -- -- 83
2021-02-15 23:00:00 6.6 4 Este 17 Sudeste 0 -- -- 83
2021-02-15 22:00:00 6.7 3 Este 13 Sudeste 0 -- -- 83
2021-02-15 21:00:00 6.8 3 Este 12 Sudeste 0 -- -- 82
2021-02-15 20:00:00 6.9 3 Sudeste 19 Sur 0 -- -- 82
2021-02-15 19:00:00 7 7 Sur 25 Sudeste 0 -- -- 80
2021-02-15 18:00:00 7.3 5 Sudeste 16 Sudeste 0 -- -- 80
2021-02-15 17:00:00 8 4 Sur 18 Sudoeste 0 -- -- 79
2021-02-15 16:00:00 8.5 4 Sur 18 Sudeste 0 -- -- 77
2021-02-15 15:00:00 8.8 5 Sudeste 18 Sudeste 0 -- -- 75
2021-02-15 14:00:00 8.7 4 Sudeste 17 Este 0 -- -- 74
2021-02-15 13:00:00 8.4 5 Sudeste 21 Sudeste 0 -- -- 75
2021-02-15 12:00:00 7.8 5 Sudeste 20 Este 0 -- -- 77
2021-02-15 11:00:00 7 6 Sudeste 21 Sudeste 0 -- -- 79
2021-02-15 10:00:00 6.8 5 Sudeste 18 Sudeste 0 -- -- 75
2021-02-15 09:00:00 6.3 6 Sudeste 19 Sudeste 0 -- -- 77
2021-02-15 08:00:00 5.9 5 Sur 19 Sur 0 -- -- 80
2021-02-15 07:00:00 5.8 5 Sudeste 15 Sudeste 0 -- -- 82
2021-02-15 06:00:00 5.6 4 Sudeste 12 Sudeste 0 -- -- 83
2021-02-15 05:00:00 5.2 3 Sudeste 17 Sur 0 -- -- 79
2021-02-15 04:00:00 4.8 3 Sudeste 13 Sur 0 -- -- 81
2021-02-15 03:00:00 3.9 2 Sudeste 13 Sur 0 -- -- 81
2021-02-15 02:00:00 4.6 0 Calma 6 Este 0 -- -- 85
2021-02-15 01:00:00 5.1 0 Calma 5 Sudeste 0 -- -- 85
2021-02-15 00:00:00 5.1 0 Calma 8 Sudeste 0 -- -- 85
2021-02-14 23:00:00 5 2 Este 12 Sudeste 0 -- -- 83
2021-02-14 22:00:00 5.5 3 Sudeste 11 Sudeste 0 -- -- 81
2021-02-14 21:00:00 5.7 5 Sudeste 14 Sur 0 -- -- 81
2021-02-14 20:00:00 5.8 4 Sudeste 15 Sudeste 0 -- -- 76
2021-02-14 19:00:00 5.9 7 Sudeste 17 Sudeste 0 -- -- 80
2021-02-14 18:00:00 6.3 6 Este 22 Sudeste 0 -- -- 81
2021-02-14 17:00:00 6.7 6 Sudeste 22 Sudeste 0 -- -- 75
2021-02-14 16:00:00 6.8 6 Sudeste 20 Sur 0 -- -- 79
2021-02-14 15:00:00 6.9 8 Sudeste 19 Sudeste 0 -- -- 83
2021-02-14 14:00:00 7.8 6 Sudeste 19 Sudoeste 0 -- -- 81
2021-02-14 13:00:00 7.7 8 Sur 21 Sur 0 -- -- 80
2021-02-14 12:00:00 7.8 5 Sur 22 Sur 0 -- -- 86
2021-02-14 11:00:00 7.9 7 Sur 19 Sudeste 0 -- -- 85
2021-02-14 10:00:00 8 6 Sudeste 19 Sur 0 -- -- 86
2021-02-14 09:00:00 7.8 3 Sur 16 Sudoeste 0 -- -- 90
2021-02-14 08:00:00 7.7 4 Sudeste 18 Sudeste 0 -- -- 90
2021-02-14 07:00:00 8.1 3 Sur 12 Sur 0 -- -- 93
2021-02-14 06:00:00 8.5 0 Calma 18 Este 0 -- -- 97
2021-02-14 05:00:00 8.8 4 Sudeste 13 Este 0 -- -- 98
2021-02-14 04:00:00 8.8 2 Sudeste 12 Sudoeste 0.1 -- -- 99
2021-02-14 03:00:00 8.8 0 Calma 8 Sur 0 -- -- 99
2021-02-14 02:00:00 8.3 0 Calma 5 Este 0 -- -- 98
2021-02-14 01:00:00 8.8 0 Calma 11 Este 0 -- -- 98
2021-02-14 00:00:00 8.9 0 Calma -- -- 0 -- -- 98
2021-02-13 23:00:00 9.2 0 Calma 6 Sudeste 0 -- -- 98
2021-02-13 22:00:00 9.3 0 Calma 10 Sudoeste 0 -- -- 99
2021-02-13 21:00:00 9.4 3 Sudeste 12 Este 0 -- -- 99
2021-02-13 20:00:00 9.4 0 Calma 14 Sudeste 0 -- -- 99
2021-02-13 19:00:00 9.3 0 Calma 8 Sudeste 0 -- -- 96
2021-02-13 18:00:00 10.3 0 Calma 9 Sudeste 0 -- -- 93
2021-02-13 17:00:00 11.3 0 Calma 17 Sur 0 -- -- 91
2021-02-13 16:00:00 11.6 0 Calma 15 Sur 0 -- -- 89
2021-02-13 15:00:00 11.5 3 Sudeste 12 Sudeste 0 -- -- 89
2021-02-13 14:00:00 12.1 0 Calma 11 Sur 0 -- -- 88
2021-02-13 13:00:00 11.9 4 Sudeste 17 Este 0 -- -- 87
2021-02-13 08:00:00 6.4 0 Calma 6 Este 0 -- -- 98
2021-02-13 07:00:00 7.3 0 Calma 2 Sudeste 0 -- -- 98
2021-02-13 06:00:00 8.8 0 Calma 15 Sudeste 0 -- -- 96
2021-02-13 05:00:00 9.4 2 Sur 18 Sur 0 -- -- 97
2021-02-13 04:00:00 9.5 0 Calma 7 Sudeste 0 -- -- 99
2021-02-13 03:00:00 9.6 0 Calma -- -- 0 -- -- 99
2021-02-13 02:00:00 9.5 0 Calma 5 Este 0 -- -- 99
2021-02-13 01:00:00 9.9 0 Calma 11 Sudeste 0 -- -- 99
2021-02-13 00:00:00 9.9 0 Calma 27 Sur 4 -- -- 99
2021-02-12 23:00:00 9.9 9 Sudeste 27 Sudeste 3.2 -- -- 99
2021-02-12 22:00:00 9.8 5 Sudeste 40 Sur 1.5 -- -- 99
2021-02-12 21:00:00 10.6 7 Sudeste 35 Sudeste 0.3 -- -- 93
2021-02-12 20:00:00 10.6 6 Sudeste 36 Sur 0.1 -- -- 90
2021-02-12 19:00:00 10.5 5 Sudeste 22 Sur 0.3 -- -- 87
2021-02-12 18:00:00 11.4 5 Sur 30 Sudeste 0.8 -- -- 91
2021-02-12 17:00:00 12.8 5 Sur 22 Sudeste 0 -- -- 76
2021-02-12 16:00:00 15.5 4 Sudeste 24 Este 0 -- -- 67
2021-02-12 15:00:00 15.1 4 Este 30 Oeste 0 -- -- 65
2021-02-12 14:00:00 15.5 6 Oeste 36 Oeste 0 -- -- 66
2021-02-12 13:00:00 16.3 2 Sur 11 Sur 0 -- -- 69
2021-02-12 12:00:00 16.3 2 Sur 17 Sudoeste 0 -- -- 69
2021-02-12 11:00:00 17.5 5 Sudoeste 24 Sudoeste 0 -- -- 59
2021-02-12 10:00:00 15.4 8 Oeste 25 Sudoeste 0 -- -- 67
2021-02-12 09:00:00 11 6 Sudoeste 21 Oeste 0 -- -- 94
2021-02-12 08:00:00 8.8 0 Calma 10 Nordeste 0 -- -- 99
2021-02-12 07:00:00 7.1 0 Calma -- -- 0 -- -- 99
2021-02-12 06:00:00 5.9 0 Calma -- -- 0 -- -- 99
2021-02-12 05:00:00 5.1 0 Calma -- -- 0 -- -- 99
2021-02-12 04:00:00 5 0 Calma -- -- 0 -- -- 99
2021-02-12 03:00:00 5.1 0 Calma -- -- 0 -- -- 98
2021-02-12 02:00:00 4.9 0 Calma -- -- 0 -- -- 97
2021-02-12 01:00:00 5 0 Calma -- -- 0 -- -- 97
2021-02-12 00:00:00 5.3 0 Calma -- -- 0 -- -- 97
2021-02-11 23:00:00 5.3 0 Calma -- -- 0 -- -- 95
2021-02-11 22:00:00 5.8 0 Calma -- -- 0 -- -- 93
2021-02-11 21:00:00 6.5 0 Calma -- -- 0 -- -- 91
2021-02-11 20:00:00 7.1 0 Calma -- -- 0 -- -- 89
2021-02-11 19:00:00 8.5 0 Calma -- -- 0 -- -- 84
2021-02-11 18:00:00 10 0 Calma -- -- 0 -- -- 79
2021-02-11 17:00:00 12.7 0 Calma 6 Sudoeste 0 -- -- 63
2021-02-11 16:00:00 15.8 0 Calma 8 Sur 0 -- -- 54
2021-02-11 15:00:00 17.5 0 Calma 13 Sudoeste 0 -- -- 41
2021-02-11 14:00:00 17.2 2 Sur 13 Sudeste 0 -- -- 38
2021-02-11 13:00:00 16.9 3 Sur 18 Sudeste 0 -- -- 38
2021-02-11 12:00:00 16.8 4 Sur 12 Sur 0 -- -- 37
2021-02-11 11:00:00 14.8 0 Calma 7 Sudeste 0 -- -- 51
2021-02-11 10:00:00 10.6 0 Calma 2 Sur 0 -- -- 72
2021-02-11 09:00:00 4 0 Calma 5 Sudeste 0 -- -- 96
2021-02-11 08:00:00 2.5 0 Calma 8 Este 0 -- -- 96
2021-02-11 07:00:00 2.2 0 Calma -- -- 0 -- -- 94
2021-02-11 06:00:00 3.3 0 Calma 0 Calma 0 -- -- 91
2021-02-11 05:00:00 4.8 0 Calma 8 Sudoeste 0 -- -- 87
2021-02-11 04:00:00 5.6 0 Calma 12 Este 0 -- -- 86
2021-02-11 03:00:00 4.6 0 Calma 12 Sudoeste 0 -- -- 91
2021-02-11 02:00:00 5.1 0 Calma 3 Sudoeste 0 -- -- 84
2021-02-11 01:00:00 7.2 0 Calma 18 Sur 0 -- -- 73
2021-02-11 00:00:00 8.9 3 Sur 18 Sudeste 0 -- -- 65
2021-02-10 23:00:00 9.4 3 Sudeste 21 Sur 0 -- -- 62
2021-02-10 22:00:00 9.2 4 Sudeste 22 Sur 0 -- -- 64
2021-02-10 21:00:00 8.8 4 Sudeste 23 Sudoeste 0 -- -- 67
2021-02-10 20:00:00 8.9 3 Sur 27 Sudoeste 0 -- -- 70
2021-02-10 19:00:00 8.4 4 Sur 26 Sur 0 -- -- 76
2021-02-10 18:00:00 8.6 5 Sudeste 24 Sur 0 -- -- 75
2021-02-10 17:00:00 9.3 6 Sudeste 29 Sur 0 -- -- 76
2021-02-10 16:00:00 10 6 Sudeste 34 Sur 0 -- -- 76
2021-02-10 15:00:00 10.2 8 Sudeste 29 Sudoeste 0 -- -- 67
2021-02-10 14:00:00 10.2 6 Sur 28 Sur 0 -- -- 81
2021-02-10 13:00:00 9.3 7 Sudeste 38 Sudeste 0 -- -- 89
2021-02-10 12:00:00 10.7 6 Sudoeste 39 Oeste 1.2 -- -- 76
2021-02-10 11:00:00 10 5 Oeste 46 Sudoeste 2.5 -- -- 81
2021-02-10 10:00:00 12 17 Oeste 69 Oeste 0.1 -- -- 62
2021-02-10 09:00:00 12.7 15 Oeste 60 Oeste 0 -- -- 50
2021-02-10 08:00:00 11.8 13 Sudoeste 60 Oeste 0 -- -- 53
2021-02-10 07:00:00 11.8 10 Sudoeste 44 Oeste 0 -- -- 52
2021-02-10 06:00:00 11.9 5 Sudoeste 46 Noroeste 0 -- -- 54
2021-02-10 05:00:00 12.7 5 Sudoeste 51 Sur 0 -- -- 47
2021-02-10 04:00:00 13.1 12 Oeste 42 Sur 0 -- -- 52
2021-02-10 03:00:00 13.7 13 Oeste 56 Sudoeste 0 -- -- 56
2021-02-10 02:00:00 13.8 15 Sudoeste 49 Sudoeste 0 -- -- 60
2021-02-10 01:00:00 13.8 10 Sudoeste 49 Sudoeste 0 -- -- 57
2021-02-10 00:00:00 14.5 11 Sudoeste 53 Sudoeste 0 -- -- 52
2021-02-09 23:00:00 14.5 13 Sudoeste 50 Sudoeste 0 -- -- 53
2021-02-09 22:00:00 13.9 12 Oeste 37 Sudoeste 0.1 -- -- 56
2021-02-09 21:00:00 12.4 2 Sur 32 Sudeste 0 -- -- 61
2021-02-09 20:00:00 11.8 3 Sudoeste 48 Oeste 0.4 -- -- 68
2021-02-09 19:00:00 14.3 8 Sudoeste 43 Sudoeste 0 -- -- 42
2021-02-09 18:00:00 14.3 13 Oeste 39 Sudoeste 0 -- -- 37
2021-02-09 17:00:00 13.9 12 Oeste 46 Noroeste 0 -- -- 34
2021-02-09 16:00:00 13.5 3 Oeste 33 Oeste 0 -- -- 37
2021-02-09 15:00:00 13.4 6 Sudoeste 35 Oeste 0 -- -- 43
2021-02-09 14:00:00 13.2 4 Sudoeste 46 Sudoeste 0 -- -- 52
2021-02-09 13:00:00 13.2 6 Sudoeste 32 Sudoeste 0 -- -- 54
2021-02-09 12:00:00 12.3 0 Calma 35 Sudoeste 0 -- -- 61
2021-02-09 11:00:00 11.4 7 Oeste 28 Noroeste 0 -- -- 62
2021-02-09 10:00:00 11.4 0 Calma 9 Sudoeste 0 -- -- 67
2021-02-09 09:00:00 9.9 0 Calma 12 Sudoeste 0 -- -- 70
2021-02-09 08:00:00 9.4 4 Sudoeste 18 Oeste 0 -- -- 73
2021-02-09 07:00:00 9.6 0 Calma 23 Sudoeste 0 -- -- 76
2021-02-09 06:00:00 9.4 3 Sudeste 26 Sur 0 -- -- 79
2021-02-09 05:00:00 9.5 4 Sur 24 Sur 0 -- -- 80
2021-02-09 04:00:00 9.6 5 Sudeste 30 Sudeste 0 -- -- 79
2021-02-09 03:00:00 10 5 Sur 40 Sudoeste 0 -- -- 73
2021-02-09 02:00:00 10.5 6 Sudoeste 39 Oeste 0 -- -- 70
2021-02-09 01:00:00 10.4 6 Sur 29 Sur 0 -- -- 71
2021-02-09 00:00:00 10.4 4 Sur 37 Sur 0 -- -- 74
2021-02-08 23:00:00 10.6 5 Sudoeste 38 Sudoeste 0 -- -- 74
2021-02-08 22:00:00 10.2 4 Sudoeste 40 Oeste 0.2 -- -- 76
2021-02-08 21:00:00 11.1 3 Sur 36 Sudoeste 0 -- -- 61
2021-02-08 20:00:00 11.5 12 Sudoeste 47 Sudoeste 0 -- -- 58
2021-02-08 19:00:00 11.5 6 Sudoeste 39 Sudoeste 0 -- -- 60
2021-02-08 18:00:00 11.3 5 Sur 46 Sudoeste 0 -- -- 63
2021-02-08 17:00:00 11.4 6 Sudoeste 45 Sudoeste 0 -- -- 67
2021-02-08 16:00:00 11.7 10 Sudoeste 43 Oeste 0 -- -- 66
2021-02-08 15:00:00 12.4 14 Oeste 38 Noroeste 0.3 -- -- 69
2021-02-08 14:00:00 12.5 6 Sudoeste 37 Oeste 0 -- -- 69
2021-02-08 13:00:00 11.3 9 Sudoeste 55 Sudoeste 0.5 -- -- 70
2021-02-08 12:00:00 13.1 7 Sudoeste 49 Sudoeste 0 -- -- 60
2021-02-08 11:00:00 13.2 7 Oeste 36 Sudoeste 0 -- -- 61
2021-02-08 10:00:00 12.2 3 Oeste 33 Oeste 0 -- -- 62
2021-02-08 09:00:00 7.7 0 Calma 16 Oeste 0 -- -- 91
2021-02-08 08:00:00 5.3 0 Calma 10 Sudoeste 0 -- -- 95
2021-02-08 07:00:00 5.5 0 Calma 6 Sur 0 -- -- 94
2021-02-08 06:00:00 5.6 0 Calma 6 Este 0 -- -- 91
2021-02-08 05:00:00 5.3 0 Calma 7 Sur 0 -- -- 87
2021-02-08 04:00:00 5.1 0 Calma -- -- 0 -- -- 85
2021-02-08 03:00:00 3.7 0 Calma -- -- 0 -- -- 85
2021-02-08 02:00:00 3.2 0 Calma 8 Nordeste 0 -- -- 85
2021-02-08 01:00:00 3.2 0 Calma 9 Este 0 -- -- 86
2021-02-08 00:00:00 3.2 0 Calma 8 Sudoeste 0 -- -- 89
2021-02-07 23:00:00 3.8 0 Calma 6 Sudeste 0 -- -- 88
2021-02-07 22:00:00 3.3 0 Calma 7 Sudeste 0 -- -- 90
2021-02-07 21:00:00 3.8 0 Calma 5 Este 0 -- -- 90
2021-02-07 20:00:00 4.5 0 Calma -- -- 0 -- -- 87
2021-02-07 19:00:00 5.5 0 Calma 14 Sudoeste 0 -- -- 84
2021-02-07 18:00:00 6.5 2 Sur 11 Sudeste 0 -- -- 80
2021-02-07 17:00:00 7.6 3 Sudeste 22 Sur 0 -- -- 74
2021-02-07 16:00:00 9.6 3 Sur 22 Sudeste 0 -- -- 65
2021-02-07 15:00:00 10.3 6 Sur 36 Sudoeste 0 -- -- 57
2021-02-07 14:00:00 9.5 4 Sudeste 26 Sudeste 0 -- -- 66
2021-02-07 13:00:00 9 4 Sudeste 23 Sudeste 0 -- -- 78
2021-02-07 12:00:00 8.8 6 Sur 25 Sudeste 0 -- -- 78
2021-02-07 11:00:00 9 7 Sur 20 Sudeste 0 -- -- 82
2021-02-07 10:00:00 9.2 5 Sur 24 Sur 0 -- -- 85
2021-02-07 09:00:00 7.9 4 Sudeste 13 Sudeste 0 -- -- 93
2021-02-07 08:00:00 8.2 4 Sudeste 22 Sudeste 0 -- -- 93
2021-02-07 07:00:00 8.8 5 Sudeste 12 Sudeste 0 -- -- 96
2021-02-07 06:00:00 9.2 6 Este 18 Este 0 -- -- 98
2021-02-07 05:00:00 8.4 0 Calma 6 Nordeste 0 -- -- 96
2021-02-07 04:00:00 6.6 0 Calma -- -- 0 -- -- 94
2021-02-07 03:00:00 6 0 Calma -- -- 0 -- -- 94
2021-02-07 02:00:00 6.5 0 Calma 3 Sudeste 0 -- -- 90
2021-02-07 01:00:00 7.5 0 Calma 0 Calma 0 -- -- 89
2021-02-07 00:00:00 9.2 0 Calma 12 Este 0 -- -- 78
2021-02-06 23:00:00 10.3 5 Este 22 Sudeste 0 -- -- 85
2021-02-06 22:00:00 11.2 5 Sudeste 19 Sudeste 0 -- -- 73
2021-02-06 21:00:00 13.5 2 Sur 21 Sudeste 0 -- -- 45
2021-02-06 20:00:00 14.2 5 Oeste 27 Noroeste 0 -- -- 43
2021-02-06 19:00:00 13.5 0 Calma 23 Sudoeste 0 -- -- 45
2021-02-06 18:00:00 13.2 0 Calma 15 Norte 0 -- -- 59
2021-02-06 17:00:00 15.5 0 Calma 15 Sudoeste 0 -- -- 50
2021-02-06 16:00:00 17 2 Sudeste 16 Este 0 -- -- 50
2021-02-06 15:00:00 17.9 0 Calma 16 Este 0 -- -- 45
2021-02-06 14:00:00 18.7 3 Sudeste 18 Sur 0 -- -- 39
2021-02-06 13:00:00 18.4 0 Calma 15 Este 0 -- -- 41
2021-02-06 12:00:00 18 5 Nordeste 24 Sudeste 0 -- -- 43
2021-02-06 11:00:00 18.1 6 Sudeste 24 Sudeste 0 -- -- 52
2021-02-06 10:00:00 18.4 4 Este 28 Sudeste 0 -- -- 40
2021-02-06 09:00:00 17.8 4 Este 29 Este 0 -- -- 39
2021-02-06 08:00:00 18.8 6 Este 23 Sudeste 0 -- -- 33
2021-02-06 07:00:00 19.5 5 Este 31 Este 0 -- -- 28
2021-02-06 06:00:00 19 8 Este 33 Sur 0 -- -- 31
2021-02-06 05:00:00 18.6 4 Este 36 Sudeste 0 -- -- 33
2021-02-06 04:00:00 19.9 5 Sudeste 36 Este 0 -- -- 26
2021-02-06 03:00:00 20.1 6 Este 42 Sudeste 0 -- -- 25
2021-02-06 02:00:00 20.2 0 Calma 32 Sur 0 -- -- 27
2021-02-06 01:00:00 19.5 4 Este 35 Sudoeste 0 -- -- 32
2021-02-06 00:00:00 19.4 6 Sudeste 41 Sur 0 -- -- 32
2021-02-05 23:00:00 18 9 Sur 33 Sur 0 -- -- 39
2021-02-05 22:00:00 15.6 4 Sur 28 Sur 0 -- -- 48
2021-02-05 21:00:00 14.5 3 Sudeste 13 Sudeste 0 -- -- 52
2021-02-05 20:00:00 14.8 4 Sudeste 26 Sudoeste 0 -- -- 50
2021-02-05 19:00:00 15.3 3 Sudeste 19 Sudeste 0 -- -- 48
2021-02-05 18:00:00 16.5 3 Sudeste 22 Sudoeste 0 -- -- 41
2021-02-05 17:00:00 17.8 5 Sur 27 Sudoeste 0 -- -- 44
2021-02-05 16:00:00 19.6 9 Sur 26 Sudoeste 0 -- -- 34
2021-02-05 15:00:00 20.4 3 Sur 23 Sudoeste 0 -- -- 29
2021-02-05 14:00:00 21 5 Sudeste 27 Sudeste 0 -- -- 37
2021-02-05 13:00:00 20.7 9 Sudeste 31 Sudeste 0 -- -- 34
2021-02-05 12:00:00 21.4 5 Sur 28 Sudoeste 0 -- -- 31
2021-02-05 11:00:00 20.8 7 Sudeste 19 Sur 0 -- -- 39
2021-02-05 10:00:00 18.4 0 Calma 23 Sudoeste 0 -- -- 52
2021-02-05 09:00:00 16 4 Sudoeste 20 Sudoeste 0 -- -- 45
2021-02-05 08:00:00 15.3 2 Este 18 Sur 0 -- -- 40
2021-02-05 07:00:00 15.9 5 Sudeste 26 Sur 0 -- -- 37
2021-02-05 06:00:00 17.4 8 Sur 32 Sur 0 -- -- 33
2021-02-05 05:00:00 17.8 12 Sur 29 Sudoeste 0 -- -- 30
2021-02-05 04:00:00 15.3 9 Sur 30 Sur 0 -- -- 39
2021-02-05 03:00:00 13.7 6 Sudeste 25 Sudeste 0 -- -- 46
2021-02-05 02:00:00 12.5 4 Este 15 Sudeste 0 -- -- 48
2021-02-05 01:00:00 9.2 0 Calma 5 Norte 0 -- -- 72
2021-02-05 00:00:00 8.5 0 Calma -- -- 0 -- -- 77
2021-02-04 23:00:00 9 0 Calma 5 Sur 0 -- -- 74
2021-02-04 22:00:00 9.7 0 Calma 3 Oeste 0 -- -- 68
2021-02-04 21:00:00 12 0 Calma 11 Oeste 0 -- -- 56
2021-02-04 20:00:00 12.3 0 Calma 12 Sudeste 0 -- -- 50
2021-02-04 19:00:00 11.9 0 Calma 11 Sudeste 0 -- -- 65
2021-02-04 18:00:00 15 0 Calma 17 Sudoeste 0 -- -- 54
2021-02-04 17:00:00 16.6 0 Calma 19 Sudeste 0 -- -- 49
2021-02-04 16:00:00 18 4 Sudeste 24 Este 0 -- -- 49
2021-02-04 15:00:00 19.1 7 Sudeste 22 Sudeste 0 -- -- 55
2021-02-04 14:00:00 20 3 Sudoeste 18 Sudeste 0 -- -- 39
2021-02-04 13:00:00 19.3 4 Oeste 9 Noroeste 0 -- -- 45
2021-02-04 12:00:00 19.1 0 Calma 12 Noroeste 0 -- -- 50
2021-02-04 11:00:00 14.5 0 Calma 4 Sudeste 0 -- -- 63
2021-02-04 10:00:00 9.5 0 Calma 6 Este 0 -- -- 87
2021-02-04 09:00:00 6.3 0 Calma -- -- 0 -- -- 95
2021-02-04 08:00:00 6 0 Calma 7 Sudeste 0 -- -- 93
2021-02-04 07:00:00 7.2 0 Calma 10 Sudoeste 0 -- -- 89
2021-02-04 06:00:00 5.7 0 Calma -- -- 0 -- -- 95
2021-02-04 05:00:00 6.5 0 Calma -- -- 0 -- -- 95
2021-02-04 04:00:00 6.7 0 Calma -- -- 0 -- -- 96
2021-02-04 03:00:00 6.2 0 Calma -- -- 0 -- -- 94
2021-02-04 02:00:00 6.2 0 Calma -- -- 0 -- -- 94
2021-02-04 01:00:00 6.5 0 Calma -- -- 0 -- -- 92
2021-02-04 00:00:00 6.7 0 Calma -- -- 0 -- -- 91
2021-02-03 23:00:00 6.9 0 Calma -- -- 0 -- -- 89
2021-02-03 22:00:00 7.1 0 Calma 6 Sudeste 0 -- -- 85
2021-02-03 21:00:00 7.7 0 Calma -- -- 0 -- -- 84
2021-02-03 20:00:00 8.6 0 Calma 6 Sur 0 -- -- 83
2021-02-03 19:00:00 9.9 0 Calma -- -- 0 -- -- 81
2021-02-03 18:00:00 12.3 0 Calma -- -- 0 -- -- 70
2021-02-03 17:00:00 15.6 0 Calma 8 Sudoeste 0 -- -- 64
2021-02-03 16:00:00 19.5 0 Calma 11 Sudoeste 0 -- -- 33
2021-02-03 15:00:00 21.5 4 Noroeste 17 Sudoeste 0 -- -- 27
2021-02-03 14:00:00 23.1 0 Calma 18 Este 0 -- -- 20
2021-02-03 13:00:00 21.3 0 Calma 26 Sur 0 -- -- 30
2021-02-03 12:00:00 18.5 0 Calma 16 Nordeste 0 -- -- 44
2021-02-03 11:00:00 14.9 3 Noroeste 13 Norte 0 -- -- 50
2021-02-03 10:00:00 10.3 2 Noroeste 10 Sur 0 -- -- 83
2021-02-03 09:00:00 6.4 0 Calma 5 Sur 0 -- -- 94
2021-02-03 08:00:00 5.4 0 Calma 7 Este 0 -- -- 94
2021-02-03 07:00:00 6.2 0 Calma 8 Sudeste 0 -- -- 90
2021-02-03 06:00:00 7.7 0 Calma 20 Oeste 0 -- -- 82
2021-02-03 05:00:00 8.4 0 Calma 16 Oeste 0 -- -- 83
2021-02-03 04:00:00 7.8 3 Nordeste 11 Este 0 -- -- 87
2021-02-03 03:00:00 6.8 2 Nordeste 14 Este 0 -- -- 92
2021-02-03 02:00:00 6.8 0 Calma 5 Sudoeste 0 -- -- 92
2021-02-03 01:00:00 7 0 Calma 5 Sudeste 0 -- -- 91
2021-02-03 00:00:00 7.5 0 Calma 9 Nordeste 0 -- -- 89
2021-02-02 23:00:00 7 0 Calma -- -- 0 -- -- 93
2021-02-02 22:00:00 7.9 0 Calma 6 Sudoeste 0 -- -- 91
2021-02-02 21:00:00 8.8 0 Calma 5 Sudoeste 0 -- -- 89
2021-02-02 20:00:00 10.7 0 Calma 12 Sudeste 0 -- -- 82
2021-02-02 19:00:00 12.6 4 Este 13 Sudeste 0 -- -- 80
2021-02-02 18:00:00 12.2 5 Sur 14 Sur 0 -- -- 81
2021-02-02 17:00:00 13.7 0 Calma 9 Sudoeste 0 -- -- 70
2021-02-02 16:00:00 16.4 2 Sudoeste 13 Sudeste 0 -- -- 56
2021-02-02 15:00:00 17.6 3 Sudeste 17 Este 0 -- -- 51
2021-02-02 14:00:00 18.4 4 Sur 19 Sudeste 0 -- -- 51
2021-02-02 13:00:00 18.9 4 Sur 21 Sur 0 -- -- 46
2021-02-02 12:00:00 18.8 4 Sudeste 19 Sudoeste 0 -- -- 50
2021-02-02 11:00:00 17.9 2 Este 15 Este 0 -- -- 47
2021-02-02 10:00:00 16.9 3 Sudeste 19 Sudeste 0 -- -- 50
2021-02-02 09:00:00 11.6 0 Calma 12 Sur 0 -- -- 76
2021-02-02 08:00:00 11.6 0 Calma 15 Sudeste 0 -- -- 70
2021-02-02 07:00:00 12.1 3 Sur 17 Sur 0 -- -- 63
2021-02-02 06:00:00 10.4 0 Calma 7 Sudeste 0 -- -- 77
2021-02-02 05:00:00 12.3 0 Calma 13 Sudeste 0 -- -- 67
2021-02-02 04:00:00 14.1 2 Sur 23 Sudoeste 0 -- -- 54
2021-02-02 03:00:00 12.7 3 Sur 17 Sudeste 0 -- -- 63
2021-02-02 02:00:00 14 3 Sudeste 31 Sudoeste 0 -- -- 57
2021-02-02 01:00:00 14.3 6 Sudeste 34 Sudeste 0 -- -- 57
2021-02-02 00:00:00 14.8 8 Sudeste 40 Sudeste 0 -- -- 51
2021-02-01 23:00:00 14.7 7 Sudeste 41 Sur 0 -- -- 55
2021-02-01 22:00:00 14.7 9 Sudeste 37 Sur 0 -- -- 54
2021-02-01 21:00:00 14.5 8 Sudeste 42 Sur 0 -- -- 55
2021-02-01 20:00:00 14.7 10 Sudeste 47 Sudeste 0 -- -- 53
2021-02-01 19:00:00 13.9 9 Sudeste 38 Sur 0 -- -- 55
2021-02-01 18:00:00 13.9 8 Sur 41 Sur 0 -- -- 52
2021-02-01 17:00:00 13.4 8 Sudeste 58 Sudeste 0 -- -- 54
2021-02-01 16:00:00 13.6 7 Sudeste 49 Sur 0 -- -- 54
2021-02-01 15:00:00 14.1 8 Sudeste 48 Este 0 -- -- 51
2021-02-01 14:00:00 14.7 8 Sudeste 49 Sur 0 -- -- 52
2021-02-01 13:00:00 15 8 Sur 37 Sudeste 0 -- -- 50
2021-02-01 12:00:00 15.2 6 Sur 48 Sur 0 -- -- 48
2021-02-01 11:00:00 15.1 9 Sudeste 37 Sudeste 0 -- -- 50
2021-02-01 10:00:00 14.3 9 Sur 48 Este 0 -- -- 50
2021-02-01 09:00:00 13.4 9 Sudeste 49 Sudeste 0 -- -- 54
2021-02-01 08:00:00 13.2 9 Sudeste 36 Sudeste 0 -- -- 56
2021-02-01 07:00:00 13.9 7 Sudeste 46 Sudeste 0 -- -- 50
2021-02-01 06:00:00 13.9 10 Sur 53 Sur 0 -- -- 54
2021-02-01 05:00:00 14.4 8 Sudeste 43 Sur 0 -- -- 51
2021-02-01 04:00:00 15.1 8 Sur 50 Sudeste 0 -- -- 51
2021-02-01 03:00:00 15 8 Sudeste 31 Sur 0 -- -- 52
2021-02-01 02:00:00 14.4 3 Sur 39 Sur 0 -- -- 58
2021-02-01 01:00:00 14.1 5 Sudeste 28 Sudeste 0 -- -- 59
2021-02-01 00:00:00 14.1 6 Sur 30 Sudoeste 0 -- -- 60
2021-01-31 23:00:00 14.2 6 Sur 31 Sudeste 0 -- -- 60
2021-01-31 22:00:00 14.1 6 Sur 33 Sudoeste 0 -- -- 62
2021-01-31 21:00:00 13.8 8 Sur 38 Sur 0 -- -- 60
2021-01-31 20:00:00 13.5 9 Sudeste 41 Sur 0 -- -- 53
2021-01-31 19:00:00 12.6 6 Sur 41 Sudeste 0 -- -- 56
2021-01-31 18:00:00 11.8 6 Sur 37 Sudeste 0 -- -- 51
2021-01-31 17:00:00 12.2 8 Sudeste 37 Sur 0 -- -- 54
2021-01-31 16:00:00 12.8 6 Sur 30 Sur 0 -- -- 50
2021-01-31 15:00:00 13.3 8 Sur 33 Sur 0 -- -- 53
2021-01-31 14:00:00 12.8 9 Sur 48 Sudeste 0 -- -- 57
2021-01-31 13:00:00 13.5 11 Sur 52 Sur 0 -- -- 51
2021-01-31 12:00:00 13.2 11 Sudeste 54 Sur 0 -- -- 53
2021-01-31 11:00:00 12.9 10 Sur 52 Sudoeste 0 -- -- 54
2021-01-31 10:00:00 12.1 12 Sur 48 Sur 0 -- -- 57
2021-01-31 09:00:00 10.7 10 Sudeste 45 Oeste 0 -- -- 59
2021-01-31 08:00:00 10.3 10 Sudeste 48 Sudeste 0 -- -- 59
2021-01-31 07:00:00 10.5 9 Sudeste 43 Sudoeste 0 -- -- 54
2021-01-31 06:00:00 10.3 8 Sudeste 32 Sudeste 0 -- -- 58
2021-01-31 05:00:00 10 6 Sudeste 32 Sudeste 0 -- -- 67
2021-01-31 04:00:00 9.9 7 Sudeste 32 Sudeste 0 -- -- 66
2021-01-31 03:00:00 9.6 7 Sudeste 35 Sudeste 0 -- -- 68
2021-01-31 02:00:00 9.8 6 Sudeste 37 Sur 0 -- -- 68
2021-01-31 01:00:00 10.1 7 Sur 29 Oeste 0 -- -- 69
2021-01-31 00:00:00 10.3 5 Sudeste 24 Sur 0 -- -- 70
2021-01-30 23:00:00 11.1 4 Sur 28 Sur 0 -- -- 66
2021-01-30 22:00:00 11.9 4 Sur 31 Sudoeste 0 -- -- 57
2021-01-30 21:00:00 11.8 6 Sur 29 Oeste 0 -- -- 53
2021-01-30 20:00:00 11.1 3 Sur 41 Sur 0 -- -- 61
2021-01-30 19:00:00 12.4 2 Sur 22 Sudoeste 0 -- -- 59
2021-01-30 18:00:00 12.8 4 Sudoeste 26 Sur 0 -- -- 56
2021-01-30 17:00:00 13.1 5 Sur 28 Sur 0 -- -- 56
2021-01-30 16:00:00 13.1 4 Sur 41 Oeste 0 -- -- 72
2021-01-30 15:00:00 14 6 Sudoeste 42 Sudoeste 0 -- -- 67
2021-01-30 14:00:00 15.2 10 Sudeste 34 Sur 0 -- -- 66
2021-01-30 13:00:00 14.4 7 Sur 38 Sur 0 -- -- 70
2021-01-30 12:00:00 14.9 7 Sudoeste 55 Oeste 0 -- -- 61
2021-01-30 11:00:00 16.5 20 Sudoeste 66 Oeste 0 -- -- 56
2021-01-30 10:00:00 18.4 14 Oeste 45 Oeste 0 -- -- 42
2021-01-30 09:00:00 13.5 3 Sur 33 Oeste 0 -- -- 72
2021-01-30 08:00:00 10.4 4 Sudoeste 23 Oeste 0 -- -- 92
2021-01-30 07:00:00 5.3 0 Calma 5 Sur 0 -- -- 99
2021-01-30 06:00:00 5.8 0 Calma 5 Este 0 -- -- 99
2021-01-30 05:00:00 5.7 0 Calma 6 Nordeste 0 -- -- 99
2021-01-30 04:00:00 5.8 0 Calma 3 Sur 0 -- -- 99
2021-01-30 03:00:00 6.2 0 Calma 5 Sudeste 0 -- -- 99
2021-01-30 02:00:00 6.4 0 Calma -- -- 0 -- -- 98
2021-01-30 01:00:00 6.8 0 Calma -- -- 0 -- -- 97
2021-01-30 00:00:00 7.5 0 Calma -- -- 0 -- -- 96